Time;durP1;ratioP1;P1;durP2;ratioP2;P2;SDS_P1;SDS_P2;PMS_P1;PMS_P2;Temp;Humidity;BMP_temperature;BMP_pressure;BME280_temperature;BME280_humidity;BME280_pressure;Samples;Min_cycle;Max_cycle;Signal;HPM_P1;HPM_P2
2024/01/14 00:00:23;;;;;;;18.52;6.15;;;-1.00;1.00;;;;;;5110867;28;20803;-72
2024/01/14 00:02:52;;;;;;;15.80;6.68;;;-0.90;1.00;;;;;;5093444;28;20421;-72
2024/01/14 00:05:19;;;;;;;18.88;6.07;;;-0.80;1.00;;;;;;5093998;28;20433;-72
2024/01/14 00:07:45;;;;;;;13.27;4.97;;;-0.90;99.90;;;;;;5094029;28;20456;-73
2024/01/14 00:10:13;;;;;;;10.43;4.13;;;-1.00;1.00;;;;;;5098163;28;20478;-72
2024/01/14 00:12:40;;;;;;;12.15;4.47;;;-0.90;1.00;;;;;;5106155;28;20420;-73
2024/01/14 00:15:07;;;;;;;13.50;5.13;;;-0.80;1.00;;;;;;5113227;28;20436;-72
2024/01/14 00:17:35;;;;;;;14.57;5.00;;;-0.70;1.00;;;;;;5114409;28;20706;-73
2024/01/14 00:20:04;;;;;;;12.30;4.82;;;-0.60;99.90;;;;;;5114630;28;20431;-72
2024/01/14 00:22:31;;;;;;;14.20;5.00;;;-0.50;99.90;;;;;;5096710;28;20552;-73
2024/01/14 00:24:58;;;;;;;18.27;6.22;;;-0.60;1.00;;;;;;5114641;28;20518;-73
2024/01/14 00:27:25;;;;;;;14.38;4.70;;;-1.10;99.90;;;;;;5115546;28;20416;-73
2024/01/14 00:29:57;;;;;;;16.25;6.25;;;-1.10;1.00;;;;;;5113561;28;20671;-72
2024/01/14 00:32:24;;;;;;;17.45;6.40;;;-1.20;1.00;;;;;;5114109;28;20440;-71
2024/01/14 00:34:51;;;;;;;15.93;5.90;;;-1.30;1.00;;;;;;5112967;28;20695;-73
2024/01/14 00:37:19;;;;;;;14.82;5.10;;;-1.40;1.00;;;;;;5113974;28;20700;-72
2024/01/14 00:39:46;;;;;;;18.80;5.80;;;-1.60;1.00;;;;;;5103411;28;20441;-72
2024/01/14 00:42:13;;;;;;;16.63;6.07;;;-1.80;1.00;;;;;;5101857;28;20988;-72
2024/01/14 00:44:42;;;;;;;19.27;7.68;;;-1.90;1.00;;;;;;5113304;28;20447;-72
2024/01/14 00:47:09;;;;;;;18.67;6.55;;;-2.00;1.00;;;;;;5114814;28;20423;-72
2024/01/14 00:49:36;;;;;;;17.10;5.30;;;-1.70;1.00;;;;;;5113167;28;20766;-72
2024/01/14 00:52:11;;;;;;;18.13;6.22;;;-1.50;1.00;;;;;;5113524;28;20701;-70
2024/01/14 00:54:58;;;;;;;16.52;4.70;;;-1.40;1.00;;;;;;5113138;28;20484;-72
2024/01/14 00:57:25;;;;;;;15.73;5.47;;;-1.30;1.00;;;;;;5094152;28;20956;-72
2024/01/14 00:59:52;;;;;;;14.20;4.72;;;-1.10;1.00;;;;;;5113272;28;20485;-71
2024/01/14 01:02:22;;;;;;;16.73;5.80;;;-1.10;1.00;;;;;;5114639;28;20427;-72
2024/01/14 01:04:49;;;;;;;18.60;6.00;;;-0.80;1.00;;;;;;5114833;28;20809;-73
2024/01/14 01:07:16;;;;;;;16.43;5.50;;;-1.00;99.90;;;;;;5116583;28;20496;-73
2024/01/14 01:09:44;;;;;;;15.27;5.20;;;-1.10;1.00;;;;;;5116630;28;20721;-73
2024/01/14 01:12:13;;;;;;;15.43;5.80;;;-1.40;1.00;;;;;;5114983;28;20439;-73
2024/01/14 01:14:40;;;;;;;14.73;5.90;;;-1.60;1.00;;;;;;5115544;28;20424;-73
2024/01/14 01:17:07;;;;;;;17.67;7.20;;;-1.70;1.00;;;;;;5116012;28;20809;-73
2024/01/14 01:19:34;;;;;;;13.95;5.88;;;-1.70;1.00;;;;;;5115926;28;20412;-73
2024/01/14 01:22:02;;;;;;;17.90;7.28;;;-1.50;1.00;;;;;;5116353;28;20727;-73
2024/01/14 01:24:29;;;;;;;18.35;6.53;;;-1.50;1.00;;;;;;5117023;28;20638;-73
2024/01/14 01:26:56;;;;;;;13.60;5.70;;;-1.50;1.00;;;;;;5118519;28;20416;-73
2024/01/14 01:29:24;;;;;;;18.57;7.03;;;-1.40;1.00;;;;;;5117342;28;20866;-73
2024/01/14 01:31:51;;;;;;;14.90;5.80;;;-1.30;1.00;;;;;;5118051;28;20477;-73
2024/01/14 01:34:19;;;;;;;16.02;5.20;;;-1.40;1.00;;;;;;5118257;28;20694;-73
2024/01/14 01:36:46;;;;;;;14.45;4.95;;;-1.60;1.00;;;;;;5117726;28;20834;-72
2024/01/14 01:39:14;;;;;;;13.52;5.85;;;-1.60;1.00;;;;;;5118111;28;20448;-73
2024/01/14 01:41:41;;;;;;;17.48;6.78;;;-1.60;1.00;;;;;;5117639;28;20488;-73
2024/01/14 01:44:08;;;;;;;19.75;5.40;;;-1.70;1.00;;;;;;5115976;28;20519;-73
2024/01/14 01:46:37;;;;;;;18.35;6.45;;;-1.70;1.00;;;;;;5116484;28;20438;-73
2024/01/14 01:49:05;;;;;;;18.02;6.53;;;-1.60;1.00;;;;;;5115186;28;20841;-72
2024/01/14 01:51:32;;;;;;;14.77;6.90;;;-1.60;1.00;;;;;;5116918;28;20420;-73
2024/01/14 01:53:59;;;;;;;16.98;6.35;;;-1.60;1.00;;;;;;5116525;28;20427;-73
2024/01/14 01:56:27;;;;;;;18.15;6.10;;;-1.80;1.00;;;;;;5117698;28;20786;-72
2024/01/14 01:58:54;;;;;;;17.13;6.40;;;-1.70;1.00;;;;;;5117314;28;20785;-72
2024/01/14 02:01:22;;;;;;;18.67;6.55;;;-1.60;1.00;;;;;;5117785;28;20428;-72
2024/01/14 02:03:53;;;;;;;16.07;6.20;;;-1.60;1.00;;;;;;5116986;28;20506;-71
2024/01/14 02:06:21;;;;;;;17.15;5.88;;;-1.60;1.00;;;;;;5111436;28;20418;-72
2024/01/14 02:08:48;;;;;;;18.42;6.57;;;-1.60;1.00;;;;;;5093986;28;20418;-72
2024/01/14 02:11:16;;;;;;;12.77;5.30;;;-1.70;1.00;;;;;;5094985;28;20475;-72
2024/01/14 02:13:43;;;;;;;16.15;6.60;;;-1.90;1.00;;;;;;5114764;28;20420;-72
2024/01/14 02:16:10;;;;;;;17.15;6.70;;;-1.90;1.00;;;;;;5114159;28;20730;-72
2024/01/14 02:18:37;;;;;;;15.77;6.72;;;-1.90;1.00;;;;;;5114969;28;20706;-72
2024/01/14 02:21:06;;;;;;;16.20;5.30;;;-1.90;1.00;;;;;;5115261;28;20432;-71
2024/01/14 02:23:39;;;;;;;19.95;6.82;;;-1.90;1.00;;;;;;5114600;28;20419;-72
2024/01/14 02:26:08;;;;;;;15.85;7.07;;;-1.80;1.00;;;;;;5111737;28;20426;-72
2024/01/14 02:28:35;;;;;;;17.30;5.88;;;-1.70;1.00;;;;;;5097130;28;20426;-72
2024/01/14 02:31:02;;;;;;;15.02;5.07;;;-1.70;1.00;;;;;;5110015;28;20441;-71
2024/01/14 02:33:29;;;;;;;13.73;6.65;;;-1.70;1.00;;;;;;5117085;28;20789;-72
2024/01/14 02:35:56;;;;;;;19.15;6.72;;;-1.60;1.00;;;;;;5113571;28;20518;-71
2024/01/14 02:38:23;;;;;;;18.48;7.28;;;-1.50;1.00;;;;;;5116060;28;20694;-72
2024/01/14 02:40:50;;;;;;;16.23;5.80;;;-1.40;1.00;;;;;;5115679;28;20408;-73
2024/01/14 02:43:18;;;;;;;13.95;6.00;;;-1.40;1.00;;;;;;5116719;28;20431;-72
2024/01/14 02:45:45;;;;;;;15.23;5.97;;;-1.40;1.00;;;;;;5116408;28;20845;-72
2024/01/14 02:48:12;;;;;;;14.75;6.13;;;-1.40;1.00;;;;;;5117433;28;20845;-72
2024/01/14 02:50:40;;;;;;;13.95;4.97;;;-1.20;1.00;;;;;;5116414;28;20412;-72
2024/01/14 02:53:07;;;;;;;16.58;6.40;;;-1.10;1.00;;;;;;5112881;28;20426;-71
2024/01/14 02:55:34;;;;;;;17.05;5.88;;;-1.00;1.00;;;;;;5095853;28;20890;-72
2024/01/14 02:58:01;;;;;;;14.83;5.63;;;-0.80;1.00;;;;;;5106232;28;20963;-71
2024/01/14 03:00:30;;;;;;;18.73;6.80;;;-0.70;1.00;;;;;;5116105;28;20431;-71
2024/01/14 03:02:57;;;;;;;17.20;6.70;;;-0.70;99.90;;;;;;5115220;28;20481;-71
2024/01/14 03:05:24;;;;;;;14.32;6.05;;;-0.90;99.90;;;;;;5112549;28;20419;-72
2024/01/14 03:07:51;;;;;;;16.37;5.47;;;-0.90;99.90;;;;;;5115765;28;20427;-71
2024/01/14 03:10:18;;;;;;;17.90;6.60;;;-0.80;99.90;;;;;;5112558;28;20432;-72
2024/01/14 03:12:45;;;;;;;13.98;4.95;;;-0.90;99.90;;;;;;5114829;28;20443;-72
2024/01/14 03:15:12;;;;;;;17.58;6.60;;;-1.30;70.70;;;;;;5115525;28;20428;-72
2024/01/14 03:17:41;;;;;;;15.15;5.72;;;-1.40;99.90;;;;;;5115912;28;20436;-72
2024/01/14 03:20:09;;;;;;;16.05;6.25;;;-1.30;1.00;;;;;;5114705;28;20829;-71
2024/01/14 03:22:36;;;;;;;15.65;5.13;;;-1.20;1.00;;;;;;5115025;28;20436;-72
2024/01/14 03:25:03;;;;;;;16.63;4.77;;;-1.30;99.90;;;;;;5115587;28;20514;-72
2024/01/14 03:27:30;;;;;;;16.95;5.10;;;-1.40;99.90;;;;;;5114170;28;20440;-72
2024/01/14 03:29:57;;;;;;;18.90;6.53;;;-1.60;99.90;;;;;;5102319;28;20437;-73
2024/01/14 03:32:25;;;;;;;17.25;6.28;;;-1.70;1.00;;;;;;5101041;28;20432;-72
2024/01/14 03:34:53;;;;;;;16.23;5.45;;;-1.70;1.00;;;;;;5102984;28;20801;-72
2024/01/14 03:37:22;;;;;;;14.45;6.50;;;-1.60;1.00;;;;;;5117526;28;20454;-72
2024/01/14 03:39:51;;;;;;;13.15;4.82;;;-1.40;1.00;;;;;;5101843;28;20537;-72
2024/01/14 03:42:18;;;;;;;13.70;4.75;;;-1.20;1.00;;;;;;5108161;28;20432;-73
2024/01/14 03:44:45;;;;;;;13.48;4.05;;;-0.90;99.90;;;;;;5110182;28;20427;-74
2024/01/14 03:47:13;;;;;;;14.50;5.90;;;-0.80;1.00;;;;;;5113570;28;20420;-71
2024/01/14 03:49:41;;;;;;;12.97;4.13;;;-1.10;99.90;;;;;;5112329;28;20518;-71
2024/01/14 03:52:09;;;;;;;13.98;4.97;;;-1.30;1.00;;;;;;5112838;28;20426;-72
2024/01/14 03:54:37;;;;;;;18.58;6.28;;;-1.30;99.90;;;;;;5113794;28;20420;-72
2024/01/14 03:57:04;;;;;;;19.10;7.10;;;-1.10;99.90;;;;;;5116244;27;20424;-71
2024/01/14 03:59:35;;;;;;;15.30;5.07;;;-1.10;99.90;;;;;;5116473;28;20432;-71
2024/01/14 04:02:03;;;;;;;17.17;6.60;;;-1.30;99.90;;;;;;5118161;28;20718;-71
2024/01/14 04:04:30;;;;;;;13.68;5.85;;;-1.20;99.90;;;;;;5116384;28;20438;-72
2024/01/14 04:06:58;;;;;;;12.73;4.77;;;-1.10;72.50;;;;;;5109389;28;20428;-72
2024/01/14 04:09:29;;;;;;;16.58;6.68;;;-1.30;1.00;;;;;;5114400;28;20455;-73
2024/01/14 04:11:56;;;;;;;13.02;5.97;;;-1.40;99.90;;;;;;5125692;28;20699;-72
2024/01/14 04:14:23;;;;;;;15.20;5.27;;;-1.40;99.90;;;;;;5095750;28;21011;-72
2024/01/14 04:16:50;;;;;;;15.57;5.47;;;-1.30;99.90;;;;;;5096811;28;20532;-72
2024/01/14 04:19:17;;;;;;;15.82;6.00;;;-1.30;99.90;;;;;;5098698;28;20438;-72
2024/01/14 04:21:44;;;;;;;16.10;5.88;;;-1.40;25.10;;;;;;5095856;28;20434;-72
2024/01/14 04:24:11;;;;;;;13.95;6.53;;;-1.50;99.90;;;;;;5095094;28;20889;-72
2024/01/14 04:26:40;;;;;;;19.98;7.00;;;-1.30;1.00;;;;;;5114697;28;20443;-73
2024/01/14 04:29:07;;;;;;;16.63;6.53;;;-1.30;99.90;;;;;;5112400;28;20533;-72
2024/01/14 04:31:34;;;;;;;24.42;8.30;;;-1.30;99.90;;;;;;5115968;28;20412;-72
2024/01/14 04:34:03;;;;;;;18.85;8.63;;;-1.30;99.90;;;;;;5107361;28;20473;-72
2024/01/14 04:36:30;;;;;;;20.85;7.47;;;-1.20;99.90;;;;;;5116407;28;20485;-72
2024/01/14 04:38:57;;;;;;;17.40;6.55;;;-1.30;99.90;;;;;;5115147;28;20416;-71
2024/01/14 04:41:25;;;;;;;17.48;6.22;;;-1.50;99.90;;;;;;5119878;28;20488;-72
2024/01/14 04:43:53;;;;;;;19.17;6.15;;;-1.60;99.90;;;;;;5120169;28;20450;-72
2024/01/14 04:46:20;;;;;;;17.40;6.75;;;-1.90;99.90;;;;;;5119391;28;20427;-72
2024/01/14 04:48:48;;;;;;;19.83;6.85;;;-2.10;1.00;;;;;;5119598;28;20416;-72
2024/01/14 04:51:17;;;;;;;17.80;6.25;;;-2.10;1.00;;;;;;5104051;28;20422;-73
2024/01/14 04:53:46;;;;;;;17.90;6.40;;;-1.80;1.00;;;;;;5099280;28;20425;-72
2024/01/14 04:56:13;;;;;;;17.15;5.93;;;-1.70;1.00;;;;;;5104729;27;20859;-72
2024/01/14 04:58:40;;;;;;;14.18;6.00;;;-1.70;1.00;;;;;;5118977;28;20455;-72
2024/01/14 05:01:09;;;;;;;14.10;5.88;;;-1.80;99.90;;;;;;5097896;28;20414;-72
2024/01/14 05:03:36;;;;;;;17.48;5.40;;;-1.70;1.00;;;;;;5103591;28;20490;-71
2024/01/14 05:06:03;;;;;;;17.58;6.05;;;-1.70;1.00;;;;;;5110799;28;20418;-72
2024/01/14 05:08:30;;;;;;;16.88;5.88;;;-1.70;99.90;;;;;;5113489;28;21868;-71
2024/01/14 05:10:57;;;;;;;16.45;6.05;;;-1.80;1.00;;;;;;5118125;28;20420;-72
2024/01/14 05:13:24;;;;;;;12.93;5.00;;;-1.90;99.90;;;;;;5117874;28;20442;-72
2024/01/14 05:15:51;;;;;;;16.27;6.10;;;-1.80;1.00;;;;;;5118110;28;20477;-73
2024/01/14 05:18:20;;;;;;;17.00;5.45;;;-1.70;1.00;;;;;;5117512;28;20683;-72
2024/01/14 05:20:47;;;;;;;17.08;6.10;;;-1.60;1.00;;;;;;5118926;28;20420;-72
2024/01/14 05:23:14;;;;;;;17.07;6.33;;;-1.60;99.90;;;;;;5109658;28;20438;-72
2024/01/14 05:25:41;;;;;;;14.02;5.45;;;-1.70;99.90;;;;;;5097395;28;20429;-72
2024/01/14 05:28:09;;;;;;;14.20;4.75;;;-1.80;99.90;;;;;;5097442;28;20771;-72
2024/01/14 05:30:36;;;;;;;14.20;5.13;;;-1.80;1.00;;;;;;5098663;28;20811;-73
2024/01/14 05:33:03;;;;;;;15.57;5.47;;;-1.90;99.90;;;;;;5117467;28;20417;-73
2024/01/14 05:35:31;;;;;;;16.77;6.18;;;-1.90;99.90;;;;;;5118529;28;20452;-73
2024/01/14 05:37:58;;;;;;;15.98;5.70;;;-2.00;1.00;;;;;;5117492;28;20830;-72
2024/01/14 05:40:25;;;;;;;13.75;5.78;;;-2.00;1.00;;;;;;5110776;28;20435;-72
2024/01/14 05:42:52;;;;;;;17.13;5.30;;;-2.10;1.00;;;;;;5108352;28;20826;-72
2024/01/14 05:45:19;;;;;;;13.68;5.20;;;-2.20;1.00;;;;;;5115601;28;20417;-73
2024/01/14 05:47:48;;;;;;;15.27;6.57;;;-2.30;1.00;;;;;;5116306;28;20721;-72
2024/01/14 05:50:15;;;;;;;13.82;5.30;;;-2.40;1.00;;;;;;5117290;28;20439;-71
2024/01/14 05:52:44;;;;;;;13.73;5.70;;;-2.20;1.00;;;;;;5117224;28;20478;-72
2024/01/14 05:55:12;;;;;;;13.77;5.60;;;-2.10;1.00;;;;;;5117668;28;20430;-72
2024/01/14 05:57:39;;;;;;;14.70;5.03;;;-1.90;1.00;;;;;;5116269;28;20471;-73
2024/01/14 06:00:07;;;;;;;14.90;5.22;;;-1.70;1.00;;;;;;5116393;28;20412;-72
2024/01/14 06:02:34;;;;;;;13.82;4.65;;;-1.60;99.90;;;;;;5112626;28;20416;-72
2024/01/14 06:05:01;;;;;;;17.25;5.05;;;-1.80;99.90;;;;;;5116874;28;20424;-72
2024/01/14 06:07:31;;;;;;;17.17;5.45;;;-2.00;99.90;;;;;;5116603;28;20428;-72
2024/01/14 06:10:00;;;;;;;13.95;4.47;;;-1.90;1.00;;;;;;5110889;28;20434;-72
2024/01/14 06:12:27;;;;;;;18.42;5.80;;;-1.80;1.00;;;;;;5116720;28;20421;-72
2024/01/14 06:14:54;;;;;;;12.82;3.60;;;-2.10;1.00;;;;;;5116638;28;20416;-72
2024/01/14 06:17:21;;;;;;;11.95;3.67;;;-2.00;1.00;;;;;;5116838;28;20855;-73
2024/01/14 06:19:48;;;;;;;13.05;4.15;;;-1.70;99.90;;;;;;5116458;28;20425;-72
2024/01/14 06:22:15;;;;;;;12.10;3.85;;;-1.50;1.00;;;;;;5116934;28;20428;-72
2024/01/14 06:24:41;;;;;;;14.50;4.57;;;-1.40;99.90;;;;;;5115784;28;20477;-72
2024/01/14 06:27:10;;;;;;;8.98;3.15;;;-1.30;99.90;;;;;;5116273;28;20836;-72
2024/01/14 06:29:37;;;;;;;12.50;3.88;;;-1.30;1.00;;;;;;5116034;28;20432;-73
2024/01/14 06:32:05;;;;;;;12.05;4.13;;;-1.30;1.00;;;;;;5116082;28;20816;-72
2024/01/14 06:34:32;;;;;;;18.52;4.93;;;-1.40;1.00;;;;;;5117518;28;20412;-73
2024/01/14 06:36:59;;;;;;;12.68;4.00;;;-1.50;1.00;;;;;;5116588;28;20852;-71
2024/01/14 06:39:26;;;;;;;11.23;4.65;;;-1.50;99.90;;;;;;5112546;28;20506;-71
2024/01/14 06:41:53;;;;;;;11.75;3.97;;;-1.60;99.90;;;;;;5116498;28;20836;-71
2024/01/14 06:44:22;;;;;;;14.43;5.17;;;-1.60;1.00;;;;;;5117191;28;20487;-71
2024/01/14 06:46:51;;;;;;;14.90;4.20;;;-1.60;1.00;;;;;;5115947;28;20501;-72
2024/01/14 06:49:18;;;;;;;17.80;4.80;;;-1.90;1.00;;;;;;5116244;28;20450;-71
2024/01/14 06:51:46;;;;;;;12.82;4.90;;;-2.20;19.90;;;;;;5116249;28;20493;-71
2024/01/14 06:54:13;;;;;;;17.10;6.20;;;-2.40;99.90;;;;;;5116157;28;20741;-71
2024/01/14 06:56:44;;;;;;;12.70;5.20;;;-2.40;1.00;;;;;;5112469;28;20453;-71
2024/01/14 06:59:14;;;;;;;12.63;5.50;;;-2.50;1.00;;;;;;5102089;28;20515;-71
2024/01/14 07:01:43;;;;;;;16.08;4.95;;;-2.50;1.00;;;;;;5108162;28;20436;-71
2024/01/14 07:04:10;;;;;;;19.70;6.35;;;-2.60;1.00;;;;;;5108161;28;20463;-71
2024/01/14 07:06:37;;;;;;;17.33;5.75;;;-2.30;1.00;;;;;;5112071;28;20416;-71
2024/01/14 07:09:04;;;;;;;11.60;4.32;;;-2.30;1.00;;;;;;5111645;28;20482;-72
2024/01/14 07:11:32;;;;;;;15.70;6.18;;;-2.20;1.00;;;;;;5113650;28;20728;-71
2024/01/14 07:14:00;;;;;;;14.52;5.32;;;-2.30;99.90;;;;;;5116317;28;20500;-72
2024/01/14 07:16:30;;;;;;;13.80;4.83;;;-2.50;1.00;;;;;;5116830;28;20456;-71
2024/01/14 07:18:58;;;;;;;15.65;6.50;;;-2.70;1.00;;;;;;5116580;28;20440;-71
2024/01/14 07:21:25;;;;;;;11.30;4.50;;;-2.60;1.00;;;;;;5116250;28;20469;-72
2024/01/14 07:23:52;;;;;;;17.60;6.28;;;-2.70;1.00;;;;;;5116510;28;20486;-72
2024/01/14 07:26:20;;;;;;;16.70;5.20;;;-2.80;1.00;;;;;;5116311;28;20444;-72
2024/01/14 07:28:47;;;;;;;16.75;5.55;;;-2.90;1.00;;;;;;5116310;28;20488;-72
2024/01/14 07:31:20;;;;;;;18.60;6.07;;;-3.00;1.00;;;;;;5116237;28;20506;-72
2024/01/14 07:33:48;;;;;;;14.30;6.32;;;-2.90;1.00;;;;;;5115427;28;20431;-72
2024/01/14 07:36:16;;;;;;;16.02;6.28;;;-2.90;1.00;;;;;;5115723;28;20416;-71
2024/01/14 07:38:43;;;;;;;20.40;5.70;;;-2.90;1.00;;;;;;5109224;28;20434;-72
2024/01/14 07:41:12;;;;;;;12.52;5.40;;;-2.80;1.00;;;;;;5095953;28;20499;-72
2024/01/14 07:43:39;;;;;;;11.53;5.07;;;-2.60;1.00;;;;;;5094539;28;20510;-71
2024/01/14 07:46:07;;;;;;;13.15;4.63;;;-2.60;1.00;;;;;;5094618;28;20889;-71
2024/01/14 07:48:34;;;;;;;18.40;5.97;;;-2.80;1.00;;;;;;5095222;28;20418;-72
2024/01/14 07:51:02;;;;;;;15.90;5.32;;;-2.80;1.00;;;;;;5094890;28;20430;-72
2024/01/14 07:53:31;;;;;;;15.30;6.90;;;-2.80;1.00;;;;;;5100468;28;20706;-71
2024/01/14 07:55:58;;;;;;;13.45;5.47;;;-2.70;1.00;;;;;;5114029;28;20811;-72
2024/01/14 07:58:25;;;;;;;12.60;3.85;;;-2.80;1.00;;;;;;5106799;28;20496;-72
2024/01/14 08:00:52;;;;;;;14.98;5.78;;;-2.90;1.00;;;;;;5094771;28;20899;-72
2024/01/14 08:03:19;;;;;;;15.00;5.95;;;-2.90;1.00;;;;;;5109054;28;20424;-72
2024/01/14 08:05:49;;;;;;;15.57;5.47;;;-2.90;1.00;;;;;;5108447;28;20421;-71
2024/01/14 08:08:16;;;;;;;14.88;6.13;;;-3.00;1.00;;;;;;5106619;28;20416;-72
2024/01/14 08:10:45;;;;;;;16.00;6.90;;;-3.00;1.00;;;;;;5116047;28;20424;-71
2024/01/14 08:13:12;;;;;;;15.75;5.07;;;-3.00;1.00;;;;;;5114997;28;20420;-71
2024/01/14 08:15:39;;;;;;;13.77;5.20;;;-3.00;1.00;;;;;;5118864;28;20588;-72
2024/01/14 08:18:06;;;;;;;13.02;4.53;;;-2.90;1.00;;;;;;5109754;28;20715;-71
2024/01/14 08:20:33;;;;;;;21.83;6.47;;;-2.90;1.00;;;;;;5112062;28;20756;-72
2024/01/14 08:23:00;;;;;;;15.63;5.25;;;-2.90;1.00;;;;;;5102218;28;20426;-72
2024/01/14 08:25:27;;;;;;;12.75;4.50;;;-3.00;1.00;;;;;;5112892;28;20432;-71
2024/01/14 08:27:56;;;;;;;16.25;6.18;;;-2.90;1.00;;;;;;5116598;28;20556;-72
2024/01/14 08:30:23;;;;;;;16.77;5.75;;;-2.80;1.00;;;;;;5119494;28;20822;-73
2024/01/14 08:32:50;;;;;;;17.00;5.75;;;-2.90;1.00;;;;;;5119648;28;20416;-72
2024/01/14 08:35:17;;;;;;;14.73;4.43;;;-2.80;1.00;;;;;;5105643;28;20730;-70
2024/01/14 08:37:46;;;;;;;15.30;5.28;;;-2.80;1.00;;;;;;5115113;28;20797;-72
2024/01/14 08:40:13;;;;;;;17.95;6.43;;;-2.70;1.00;;;;;;5098839;28;20418;-73
2024/01/14 08:42:43;;;;;;;13.48;5.32;;;-2.60;1.00;;;;;;5096750;28;20535;-72
2024/01/14 08:45:13;;;;;;;12.90;5.10;;;-2.50;1.00;;;;;;5115470;28;20423;-71
2024/01/14 08:47:40;;;;;;;14.17;5.00;;;-2.40;1.00;;;;;;5108445;28;20893;-72
2024/01/14 08:50:10;;;;;;;16.10;5.82;;;-2.30;1.00;;;;;;5110905;28;20870;-71
2024/01/14 08:52:37;;;;;;;13.15;5.68;;;-2.40;1.00;;;;;;5107201;28;20531;-70
2024/01/14 08:55:05;;;;;;;16.55;5.53;;;-2.30;1.00;;;;;;5114458;28;20480;-70
2024/01/14 08:57:32;;;;;;;12.23;5.82;;;-2.50;1.00;;;;;;5108312;28;20447;-71
2024/01/14 08:59:59;;;;;;;16.35;6.32;;;-2.50;1.00;;;;;;5115781;28;20481;-71
2024/01/14 09:02:27;;;;;;;15.05;4.55;;;-2.50;1.00;;;;;;5111879;28;20446;-72
2024/01/14 09:04:54;;;;;;;16.90;6.35;;;-2.60;1.00;;;;;;5107067;28;20483;-70
2024/01/14 09:07:21;;;;;;;14.55;5.53;;;-2.50;1.00;;;;;;5114749;28;20451;-72
2024/01/14 09:09:49;;;;;;;28.23;10.45;;;-2.50;1.00;;;;;;5110963;28;20446;-71
2024/01/14 09:12:16;;;;;;;19.03;5.93;;;-2.40;1.00;;;;;;5105378;28;21054;-71
2024/01/14 09:14:43;;;;;;;15.95;5.63;;;-2.40;1.00;;;;;;5100351;28;20433;-72
2024/01/14 09:17:11;;;;;;;19.25;6.18;;;-2.40;1.00;;;;;;5106994;27;20439;-71
2024/01/14 09:19:45;;;;;;;17.17;6.78;;;-2.40;1.00;;;;;;5112633;28;20443;-72
2024/01/14 09:22:12;;;;;;;20.85;6.72;;;-2.50;1.00;;;;;;5107272;28;20427;-71
2024/01/14 09:24:45;;;;;;;18.10;6.90;;;-2.50;1.00;;;;;;5103424;28;20727;-73
2024/01/14 09:27:12;;;;;;;16.77;6.65;;;-2.40;1.00;;;;;;5113256;28;20801;-71
2024/01/14 09:29:40;;;;;;;19.67;7.28;;;-2.30;1.00;;;;;;5111476;28;20436;-70
2024/01/14 09:32:08;;;;;;;15.43;5.70;;;-2.30;1.00;;;;;;5110874;28;20675;-72
2024/01/14 09:34:35;;;;;;;13.00;5.00;;;-2.40;1.00;;;;;;5108461;28;20430;-70
2024/01/14 09:37:03;;;;;;;15.60;5.07;;;-2.40;1.00;;;;;;5100646;28;20430;-71
2024/01/14 09:39:30;;;;;;;16.58;6.25;;;-2.60;1.00;;;;;;5111216;28;20432;-70
2024/01/14 09:42:05;;;;;;;16.42;5.88;;;-2.60;1.00;;;;;;5110408;27;21044;-71
2024/01/14 09:44:32;;;;;;;18.08;7.40;;;-2.50;1.00;;;;;;5112050;28;20992;-70
2024/01/14 09:47:02;;;;;;;20.17;6.57;;;-2.50;1.00;;;;;;5111290;28;20834;-71
2024/01/14 09:49:29;;;;;;;16.00;5.57;;;-2.60;1.00;;;;;;5105369;28;20433;-71
2024/01/14 09:51:57;;;;;;;17.08;6.45;;;-2.70;1.00;;;;;;5109966;28;20508;-71
2024/01/14 09:54:25;;;;;;;18.08;7.15;;;-2.70;1.00;;;;;;5109959;28;20431;-72
2024/01/14 09:56:53;;;;;;;17.20;6.70;;;-2.70;1.00;;;;;;5112629;28;20440;-72
2024/01/14 09:59:22;;;;;;;22.50;7.45;;;-2.60;1.00;;;;;;5109678;28;20512;-72
2024/01/14 10:01:52;;;;;;;18.93;6.83;;;-2.50;1.00;;;;;;5105511;28;20444;-72
2024/01/14 10:04:21;;;;;;;16.57;6.10;;;-2.40;1.00;;;;;;5108662;28;20469;-71
2024/01/14 10:06:53;;;;;;;14.80;6.70;;;-2.50;1.00;;;;;;5111819;28;20436;-71
2024/01/14 10:09:21;;;;;;;14.77;6.40;;;-2.50;1.00;;;;;;5112022;28;20436;-70
2024/01/14 10:11:50;;;;;;;27.63;10.63;;;-2.40;1.00;;;;;;5107560;28;20769;-70
2024/01/14 10:14:19;;;;;;;15.23;6.30;;;-2.30;1.00;;;;;;5106437;28;20433;-70
2024/01/14 10:16:46;;;;;;;15.63;7.70;;;-2.20;1.00;;;;;;5105057;28;20443;-71
2024/01/14 10:19:13;;;;;;;16.67;6.05;;;-2.10;99.90;;;;;;5109720;28;20821;-70
2024/01/14 10:21:41;;;;;;;19.43;7.47;;;-2.00;99.90;;;;;;5107455;28;20440;-71
2024/01/14 10:24:10;;;;;;;17.83;7.70;;;-2.00;99.90;;;;;;5115211;28;20436;-71
2024/01/14 10:26:37;;;;;;;16.15;6.32;;;-1.90;90.70;;;;;;5113765;28;20466;-71
2024/01/14 10:29:06;;;;;;;15.73;5.90;;;-1.80;99.90;;;;;;5116641;28;20421;-70
2024/01/14 10:31:33;;;;;;;14.85;7.28;;;-1.70;1.00;;;;;;5106427;27;20809;-71
2024/01/14 10:34:02;;;;;;;22.55;7.82;;;-1.70;1.00;;;;;;5098067;28;20438;-71
2024/01/14 10:36:29;;;;;;;16.73;6.30;;;-1.60;1.00;;;;;;5106210;28;20485;-69
2024/01/14 10:39:01;;;;;;;14.52;6.57;;;-1.50;93.70;;;;;;5098881;28;20910;-71
2024/01/14 10:41:28;;;;;;;19.83;7.80;;;-1.60;1.00;;;;;;5109946;28;20436;-71
2024/01/14 10:43:56;;;;;;;16.38;7.32;;;-1.60;1.00;;;;;;5105416;28;20435;-71
2024/01/14 10:46:25;;;;;;;14.48;5.75;;;-1.50;1.00;;;;;;5119273;28;20433;-73
2024/01/14 10:48:58;;;;;;;17.30;6.90;;;-1.60;99.90;;;;;;5116839;28;20493;-71
2024/01/14 10:51:31;;;;;;;14.60;6.38;;;-1.50;1.00;;;;;;5115385;28;20424;-72
2024/01/14 10:54:05;;;;;;;16.15;6.93;;;-1.50;1.00;;;;;;5111588;28;20420;-71
2024/01/14 10:56:39;;;;;;;20.97;6.50;;;-1.40;1.00;;;;;;5101431;28;20432;-72
2024/01/14 10:59:09;;;;;;;13.00;5.85;;;-1.20;1.00;;;;;;5107031;28;20464;-71
2024/01/14 11:01:45;;;;;;;15.50;6.75;;;-1.10;1.00;;;;;;5114108;28;20443;-73
2024/01/14 11:04:13;;;;;;;13.80;6.55;;;-1.10;1.00;;;;;;5114236;28;20428;-73
2024/01/14 11:06:41;;;;;;;13.02;6.60;;;-1.00;1.00;;;;;;5106428;27;20446;-72
2024/01/14 11:09:08;;;;;;;15.77;7.50;;;-0.90;1.00;;;;;;5115368;27;20424;-71
2024/01/14 11:11:41;;;;;;;15.30;6.18;;;-0.80;81.30;;;;;;5114344;27;20500;-71
2024/01/14 11:14:17;;;;;;;17.67;8.43;;;-0.90;1.00;;;;;;5113069;28;20427;-72
2024/01/14 11:16:52;;;;;;;20.00;6.95;;;-0.80;1.00;;;;;;5107437;28;20420;-70
2024/01/14 11:19:22;;;;;;;13.80;6.47;;;-0.60;1.00;;;;;;5109254;28;20430;-69
2024/01/14 11:21:56;;;;;;;12.18;5.68;;;-0.50;99.90;;;;;;5112714;28;20428;-71
2024/01/14 11:24:24;;;;;;;13.13;5.95;;;-0.40;99.90;;;;;;5112526;27;20420;-72
2024/01/14 11:26:51;;;;;;;13.77;5.60;;;-0.40;1.00;;;;;;5110552;27;20425;-72
2024/01/14 11:29:32;;;;;;;14.05;6.30;;;-0.40;1.00;;;;;;5110620;27;20495;-73
2024/01/14 11:32:08;;;;;;;16.58;6.00;;;-0.30;1.00;;;;;;5108192;28;20497;-71
2024/01/14 11:34:57;;;;;;;19.90;8.02;;;-0.20;1.00;;;;;;5111620;28;20825;-72
2024/01/14 11:37:43;;;;;;;16.25;5.45;;;-0.20;1.00;;;;;;5107440;28;20879;-72
2024/01/14 11:40:26;;;;;;;12.93;6.25;;;-0.10;1.00;;;;;;5111266;28;20798;-71
2024/01/14 11:43:07;;;;;;;15.30;6.15;;;0.00;99.90;;;;;;5110558;27;20470;-72
2024/01/14 11:45:39;;;;;;;13.90;6.75;;;0.00;99.90;;;;;;5110890;27;20860;-71
2024/01/14 11:48:12;;;;;;;16.75;6.93;;;0.10;1.00;;;;;;5109787;27;20456;-72
2024/01/14 11:50:41;;;;;;;16.77;6.32;;;0.20;99.90;;;;;;5107813;28;20438;-71
2024/01/14 11:53:09;;;;;;;15.68;5.53;;;0.20;99.90;;;;;;5110478;28;21042;-71
2024/01/14 11:55:37;;;;;;;16.60;6.22;;;0.20;99.90;;;;;;5109888;28;20483;-71
2024/01/14 11:58:13;;;;;;;15.93;7.10;;;0.20;99.90;;;;;;5108170;28;20420;-71
2024/01/14 12:00:41;;;;;;;15.05;5.50;;;0.40;99.90;;;;;;5107960;28;20438;-71
2024/01/14 12:03:11;;;;;;;15.65;6.18;;;0.40;28.50;;;;;;5111676;28;20442;-71
2024/01/14 12:05:39;;;;;;;18.17;7.68;;;0.60;1.00;;;;;;5109248;28;20808;-70
2024/01/14 12:08:06;;;;;;;15.75;5.30;;;0.80;41.00;;;;;;5110940;28;20762;-71
2024/01/14 12:10:33;;;;;;;16.52;6.35;;;0.90;71.00;;;;;;5109063;28;20487;-73
2024/01/14 12:13:02;;;;;;;18.05;6.90;;;1.00;1.00;;;;;;5107531;28;20425;-73
2024/01/14 12:15:29;;;;;;;17.00;7.15;;;1.10;1.00;;;;;;5106332;28;20439;-73
2024/01/14 12:17:58;;;;;;;16.15;6.93;;;1.60;1.00;;;;;;5102094;28;20830;-72
2024/01/14 12:20:28;;;;;;;17.70;6.00;;;1.60;1.00;;;;;;5111056;28;20443;-73
2024/01/14 12:23:00;;;;;;;13.30;5.40;;;2.00;99.90;;;;;;5103156;28;20429;-73
2024/01/14 12:25:28;;;;;;;15.60;6.63;;;3.10;76.70;;;;;;5103731;28;20424;-73
2024/01/14 12:27:55;;;;;;;16.48;7.05;;;3.30;1.00;;;;;;5101206;28;20457;-72
2024/01/14 12:30:31;;;;;;;14.60;7.37;;;3.10;99.90;;;;;;5102835;28;20483;-73
2024/01/14 12:32:59;;;;;;;17.15;7.53;;;2.70;99.90;;;;;;5100648;28;21132;-75
2024/01/14 12:35:35;;;;;;;17.55;5.22;;;2.30;99.90;;;;;;5105926;28;20489;-73
2024/01/14 12:38:04;;;;;;;16.85;6.80;;;2.40;1.00;;;;;;5103607;28;20477;-73
2024/01/14 12:40:32;;;;;;;11.82;6.00;;;2.10;99.90;;;;;;5107568;28;20430;-73
2024/01/14 12:43:00;;;;;;;14.38;5.80;;;2.00;99.90;;;;;;5104660;28;20865;-73
2024/01/14 12:45:27;;;;;;;11.60;5.90;;;1.80;99.90;;;;;;5103558;28;20426;-72
2024/01/14 12:48:01;;;;;;;15.20;6.53;;;1.90;99.90;;;;;;5106756;28;20420;-72
2024/01/14 12:50:30;;;;;;;13.48;5.47;;;1.80;99.90;;;;;;5104626;28;20519;-74